GMTA/AHU METAR and TAF weather

Enter ICAO airport designator
Station Type Date Time Source
GMTA METAR 2020/04/06 07:00 UTC NOAA

GMTA 060700Z 00000KT 9999 OVC023 15/13 Q1021 NOSIG


Station Type Date Time Source
GMTA Decoded METAR 2020/04/06 07:00 UTC NOAA

Al Hoceima, Morocco (GMTA) 35-11N 003-51W 14M
Apr 06, 2020 - 03:00 AM EDT / 2020.04.06 0700 UTC
Wind: Calm:0
Visibility: greater than 7 mile(s):0
Sky conditions: overcast
Temperature: 59 F (15 C)
Dew Point: 55 F (13 C)
Relative Humidity: 87%
Pressure (altimeter): 30.15 in. Hg (1021 hPa)
ob: GMTA 060700Z 00000KT 9999 OVC023 15/13 Q1021 NOSIG
cycle: 7

Station Type Date Time Source
GMTA TAF 2020/04/06 06:18 UTC NOAA

TAF GMTA 060500Z 0606/0712 17003KT 8000 NSC

Example: see airport list